createdAt,value
2023-04-16T00:00:15.685Z,25.00
2023-04-16T00:01:15.729Z,25.00
2023-04-16T00:02:15.797Z,25.00
2023-04-16T00:03:15.834Z,0.00
2023-04-16T00:04:15.765Z,0.00
2023-04-16T00:05:15.801Z,0.00
2023-04-16T00:06:15.833Z,0.00
2023-04-16T00:07:15.877Z,0.00
2023-04-16T00:08:15.950Z,0.00
2023-04-16T00:09:16.009Z,0.00
2023-04-16T00:10:16.095Z,4.09
2023-04-16T00:11:16.145Z,21.67
2023-04-16T00:12:16.239Z,25.84
2023-04-16T00:13:16.276Z,25.00
2023-04-16T00:14:16.342Z,25.00
2023-04-16T00:15:16.405Z,25.00
2023-04-16T00:16:16.492Z,25.03
2023-04-16T00:17:16.524Z,25.00
2023-04-16T00:18:16.577Z,25.52
2023-04-16T00:19:16.647Z,25.41
2023-04-16T00:20:16.710Z,25.22
2023-04-16T00:21:16.765Z,25.00
2023-04-16T00:22:16.811Z,25.82
2023-04-16T00:23:16.870Z,26.52
2023-04-16T00:24:16.926Z,27.01
2023-04-16T00:25:16.990Z,26.82
2023-04-16T00:26:17.031Z,26.30
2023-04-16T00:27:17.098Z,25.10
2023-04-16T00:28:17.172Z,25.26
2023-04-16T00:29:17.221Z,27.42
2023-04-16T00:30:17.288Z,29.97
2023-04-16T00:31:17.398Z,25.00
2023-04-16T00:32:17.430Z,28.63
2023-04-16T00:33:17.478Z,26.60
2023-04-16T00:34:17.526Z,25.59
2023-04-16T00:35:17.568Z,26.68
2023-04-16T00:36:17.603Z,28.54
2023-04-16T00:37:17.636Z,25.78
2023-04-16T00:38:17.689Z,25.13
2023-04-16T00:39:17.766Z,25.01
2023-04-16T00:40:18.346Z,29.72
2023-04-16T00:41:17.826Z,28.22
2023-04-16T00:42:17.887Z,26.68
2023-04-16T00:43:17.943Z,29.93
2023-04-16T00:44:18.026Z,28.27
2023-04-16T00:45:18.055Z,28.15
2023-04-16T00:46:18.135Z,26.66
2023-04-16T00:47:18.173Z,26.88
2023-04-16T00:48:18.187Z,30.54
2023-04-16T00:49:18.219Z,29.18
2023-04-16T00:50:18.293Z,26.53
2023-04-16T00:51:18.320Z,29.68
2023-04-16T00:52:18.358Z,30.92
2023-04-16T00:53:18.410Z,31.57
2023-04-16T00:54:18.463Z,27.17
2023-04-16T00:55:18.566Z,27.10
2023-04-16T00:56:18.582Z,28.30
2023-04-16T00:57:18.636Z,25.05
2023-04-16T00:58:18.685Z,27.97
2023-04-16T00:59:18.723Z,27.31
2023-04-16T01:00:18.818Z,27.56
2023-04-16T01:01:18.855Z,25.82
2023-04-16T01:02:18.921Z,27.84
2023-04-16T01:03:19.067Z,29.24
2023-04-16T01:04:19.064Z,31.43
2023-04-16T01:05:18.992Z,27.24
2023-04-16T01:06:19.047Z,26.69
2023-04-16T01:07:19.140Z,30.02
2023-04-16T01:08:19.174Z,25.39
2023-04-16T01:09:19.230Z,25.37
2023-04-16T01:10:19.273Z,28.07
2023-04-16T01:11:19.321Z,27.42
2023-04-16T01:12:19.360Z,29.34
2023-04-16T01:13:19.393Z,29.23
2023-04-16T01:14:19.440Z,28.23
2023-04-16T01:15:19.493Z,27.07
2023-04-16T01:16:22.561Z,27.12
2023-04-16T01:17:19.542Z,27.21
2023-04-16T01:18:19.547Z,27.27
2023-04-16T01:19:19.527Z,27.06
2023-04-16T01:20:19.526Z,27.48
2023-04-16T01:21:19.511Z,27.43
2023-04-16T01:22:19.508Z,27.60
2023-04-16T01:23:19.500Z,27.14
2023-04-16T01:24:19.490Z,27.46
2023-04-16T01:25:19.478Z,25.63
2023-04-16T01:26:19.473Z,29.84
2023-04-16T01:27:19.467Z,27.08
2023-04-16T01:28:19.456Z,29.33
2023-04-16T01:29:19.450Z,27.52
2023-04-16T01:30:19.467Z,27.00
2023-04-16T01:31:19.455Z,28.52
2023-04-16T01:32:19.499Z,29.96
2023-04-16T01:33:19.430Z,28.04
2023-04-16T01:34:19.417Z,30.05
2023-04-16T01:35:19.418Z,30.41
2023-04-16T01:36:19.412Z,29.79
2023-04-16T01:37:19.413Z,28.98
2023-04-16T01:38:19.411Z,28.52
2023-04-16T01:39:19.424Z,27.77
2023-04-16T01:40:19.393Z,27.59
2023-04-16T01:41:19.379Z,29.52
2023-04-16T01:42:19.392Z,26.41
2023-04-16T01:43:19.380Z,26.99
2023-04-16T01:44:19.868Z,27.30
2023-04-16T01:45:19.410Z,25.96
2023-04-16T01:46:19.430Z,28.09
2023-04-16T01:47:19.356Z,26.53
2023-04-16T01:48:19.358Z,26.10
2023-04-16T01:49:19.319Z,27.62
2023-04-16T01:50:19.320Z,25.67
2023-04-16T01:51:19.875Z,30.27
2023-04-16T01:52:19.293Z,29.76
2023-04-16T01:53:19.293Z,28.32
2023-04-16T01:54:19.287Z,29.27
2023-04-16T01:55:19.280Z,26.60
2023-04-16T01:56:19.280Z,26.97
2023-04-16T01:57:19.302Z,27.87
2023-04-16T01:58:19.380Z,27.02
2023-04-16T01:59:19.369Z,28.62
2023-04-16T02:00:19.404Z,26.61
2023-04-16T02:01:19.475Z,30.74
2023-04-16T02:02:19.814Z,27.18
2023-04-16T02:03:20.900Z,25.32
2023-04-16T02:04:19.563Z,28.07
2023-04-16T02:05:19.562Z,27.79
2023-04-16T02:06:19.582Z,30.51
2023-04-16T02:07:19.615Z,26.77
2023-04-16T02:08:19.641Z,27.94
2023-04-16T02:09:19.649Z,27.22
2023-04-16T02:10:19.673Z,30.08
2023-04-16T02:11:19.698Z,30.17
2023-04-16T02:12:19.725Z,31.36
2023-04-16T02:13:19.731Z,30.16
2023-04-16T02:14:19.777Z,29.04
2023-04-16T02:15:19.820Z,31.60
2023-04-16T02:16:19.876Z,29.99
2023-04-16T02:17:19.981Z,29.84
2023-04-16T02:18:22.876Z,31.81
2023-04-16T02:19:19.883Z,34.80
2023-04-16T02:20:19.904Z,32.80
2023-04-16T02:21:19.866Z,30.33
2023-04-16T02:22:19.856Z,27.75
2023-04-16T02:23:19.857Z,31.59
2023-04-16T02:24:19.844Z,28.75
2023-04-16T02:25:19.885Z,28.05
2023-04-16T02:26:19.822Z,32.87
2023-04-16T02:27:19.834Z,28.74
2023-04-16T02:28:19.810Z,29.65
2023-04-16T02:29:19.803Z,27.93
2023-04-16T02:30:19.810Z,30.43
2023-04-16T02:31:19.883Z,29.46
2023-04-16T02:32:19.806Z,26.60
2023-04-16T02:33:19.775Z,31.02
2023-04-16T02:34:19.785Z,29.95
2023-04-16T02:35:19.777Z,28.53
2023-04-16T02:36:19.790Z,30.78
2023-04-16T02:37:19.763Z,29.19
2023-04-16T02:38:19.755Z,29.84
2023-04-16T02:39:19.756Z,27.39
2023-04-16T02:40:19.755Z,30.16
2023-04-16T02:41:19.732Z,29.95
2023-04-16T02:42:20.770Z,28.31
2023-04-16T02:43:19.732Z,27.26
2023-04-16T02:44:19.736Z,28.40
2023-04-16T02:45:19.703Z,25.46
2023-04-16T02:46:19.766Z,27.55
2023-04-16T02:47:19.738Z,28.39
2023-04-16T02:48:19.898Z,29.83
2023-04-16T02:49:19.681Z,28.09
2023-04-16T02:50:19.667Z,29.64
2023-04-16T02:51:20.788Z,30.78
2023-04-16T02:52:19.678Z,29.68
2023-04-16T02:53:19.666Z,27.22
2023-04-16T02:54:19.639Z,29.48
2023-04-16T02:55:19.665Z,27.67
2023-04-16T02:56:19.636Z,31.51
2023-04-16T02:57:19.633Z,31.77
2023-04-16T02:58:19.625Z,30.06
2023-04-16T02:59:19.623Z,31.93
2023-04-16T03:00:19.613Z,29.97
2023-04-16T03:01:22.444Z,27.72
2023-04-16T03:02:19.664Z,36.38
2023-04-16T03:03:19.669Z,33.45
2023-04-16T03:04:19.615Z,33.82
2023-04-16T03:05:19.589Z,31.96
2023-04-16T03:06:19.564Z,32.94
2023-04-16T03:07:19.592Z,28.75
2023-04-16T03:08:19.587Z,31.68
2023-04-16T03:09:19.545Z,31.60
2023-04-16T03:10:19.537Z,29.89
2023-04-16T03:11:19.531Z,31.27
2023-04-16T03:12:19.519Z,30.44
2023-04-16T03:13:19.515Z,29.59
2023-04-16T03:14:22.389Z,30.18
2023-04-16T03:15:19.522Z,30.38
2023-04-16T03:16:20.152Z,30.73
2023-04-16T03:17:19.530Z,31.83
2023-04-16T03:18:19.491Z,32.26
2023-04-16T03:19:19.481Z,33.63
2023-04-16T03:20:19.480Z,30.50
2023-04-16T03:21:19.466Z,30.50
2023-04-16T03:22:19.458Z,31.09
2023-04-16T03:23:19.456Z,28.16
2023-04-16T03:24:19.483Z,28.92
2023-04-16T03:25:19.451Z,26.52
2023-04-16T03:26:20.123Z,32.41
2023-04-16T03:27:19.450Z,28.85
2023-04-16T03:28:19.457Z,30.51
2023-04-16T03:29:19.453Z,30.21
2023-04-16T03:30:22.409Z,31.25
2023-04-16T03:31:19.463Z,31.34
2023-04-16T03:32:22.447Z,30.51
2023-04-16T03:33:19.469Z,31.54
2023-04-16T03:34:19.419Z,31.66
2023-04-16T03:35:19.436Z,29.16
2023-04-16T03:36:19.429Z,30.47
2023-04-16T03:37:19.416Z,33.80
2023-04-16T03:38:19.423Z,31.56
2023-04-16T03:39:19.414Z,30.59
2023-04-16T03:40:19.437Z,31.16
2023-04-16T03:41:19.408Z,31.78
2023-04-16T03:42:19.409Z,28.93
2023-04-16T03:43:19.412Z,29.40
2023-04-16T03:44:19.412Z,29.75
2023-04-16T03:45:19.408Z,27.96
2023-04-16T03:46:19.483Z,31.29
2023-04-16T03:47:19.424Z,30.38
2023-04-16T03:48:19.399Z,27.89
2023-04-16T03:49:19.399Z,26.45
2023-04-16T03:50:19.384Z,29.75
2023-04-16T03:51:19.381Z,28.77
2023-04-16T03:52:19.369Z,29.69
2023-04-16T03:53:19.390Z,27.44
2023-04-16T03:54:22.055Z,32.72
2023-04-16T03:55:19.351Z,32.79
2023-04-16T03:56:19.400Z,31.98
2023-04-16T03:57:19.349Z,30.12
2023-04-16T03:58:19.358Z,27.72
2023-04-16T03:59:19.341Z,27.77
2023-04-16T04:00:19.337Z,29.99
2023-04-16T04:01:19.331Z,31.02
2023-04-16T04:02:19.469Z,29.65
2023-04-16T04:03:19.663Z,28.45
2023-04-16T04:04:19.375Z,26.63
2023-04-16T04:05:19.309Z,27.25
2023-04-16T04:06:19.313Z,30.23
2023-04-16T04:07:19.310Z,26.61
2023-04-16T04:08:19.291Z,29.59
2023-04-16T04:09:19.277Z,30.30
2023-04-16T04:10:19.281Z,29.80
2023-04-16T04:11:19.270Z,31.79
2023-04-16T04:12:19.286Z,27.20
2023-04-16T04:13:19.273Z,28.98
2023-04-16T04:14:19.266Z,30.39
2023-04-16T04:15:19.265Z,28.25
2023-04-16T04:16:19.272Z,31.66
2023-04-16T04:17:19.249Z,30.35
2023-04-16T04:18:19.244Z,28.30
2023-04-16T04:19:19.234Z,28.79
2023-04-16T04:20:19.271Z,27.86
2023-04-16T04:21:19.234Z,25.88
2023-04-16T04:22:19.229Z,26.75
2023-04-16T04:23:19.229Z,27.41
2023-04-16T04:24:19.229Z,28.96
2023-04-16T04:25:19.233Z,29.43
2023-04-16T04:26:19.266Z,29.81
2023-04-16T04:27:19.226Z,27.95
2023-04-16T04:28:19.247Z,31.10
2023-04-16T04:29:19.213Z,28.17
2023-04-16T04:30:19.207Z,31.93
2023-04-16T04:31:19.234Z,29.43
2023-04-16T04:32:19.237Z,28.44
2023-04-16T04:33:19.265Z,31.59
2023-04-16T04:34:19.316Z,30.89
2023-04-16T04:35:19.380Z,29.15
2023-04-16T04:36:19.409Z,29.63
2023-04-16T04:37:19.465Z,30.35
2023-04-16T04:38:19.553Z,30.72
2023-04-16T04:39:19.585Z,31.31
2023-04-16T04:40:19.642Z,32.63
2023-04-16T04:41:19.663Z,26.42
2023-04-16T04:42:19.701Z,28.77
2023-04-16T04:43:20.127Z,30.63
2023-04-16T04:44:20.156Z,26.58
2023-04-16T04:45:20.120Z,30.70
2023-04-16T04:46:20.196Z,29.67
2023-04-16T04:47:20.152Z,31.21
2023-04-16T04:48:20.125Z,30.04
2023-04-16T04:49:20.119Z,29.53
2023-04-16T04:50:20.122Z,30.86
2023-04-16T04:51:20.148Z,29.67
2023-04-16T04:52:20.186Z,30.20
2023-04-16T04:53:20.219Z,32.04
2023-04-16T04:54:20.245Z,30.60
2023-04-16T04:55:20.264Z,29.94
2023-04-16T04:56:20.311Z,29.90
2023-04-16T04:57:20.360Z,31.64
2023-04-16T04:58:20.392Z,30.33
2023-04-16T04:59:20.448Z,29.98
2023-04-16T05:00:20.552Z,32.78
2023-04-16T05:01:21.488Z,31.44
2023-04-16T05:02:21.122Z,28.90
2023-04-16T05:03:21.038Z,27.75
2023-04-16T05:04:21.011Z,29.58
2023-04-16T05:05:21.074Z,30.35
2023-04-16T05:06:21.013Z,30.17
2023-04-16T05:07:21.008Z,30.13
2023-04-16T05:08:21.016Z,28.85
2023-04-16T05:09:21.051Z,30.78
2023-04-16T05:10:21.093Z,29.17
2023-04-16T05:11:21.164Z,29.82
2023-04-16T05:12:21.223Z,33.05
2023-04-16T05:13:21.281Z,32.28
2023-04-16T05:14:21.346Z,29.91
2023-04-16T05:15:21.968Z,33.11
2023-04-16T05:16:21.558Z,28.82
2023-04-16T05:17:21.591Z,31.81
2023-04-16T05:18:21.617Z,31.70
2023-04-16T05:19:21.673Z,29.60
2023-04-16T05:20:21.733Z,34.70
2023-04-16T05:21:21.803Z,32.28
2023-04-16T05:22:21.876Z,34.24
2023-04-16T05:23:22.458Z,31.79
2023-04-16T05:24:22.003Z,30.01
2023-04-16T05:25:22.066Z,32.20
2023-04-16T05:26:22.126Z,35.24
2023-04-16T05:27:22.215Z,32.66
2023-04-16T05:28:22.259Z,31.89
2023-04-16T05:29:22.952Z,32.22
2023-04-16T05:30:22.370Z,33.47
2023-04-16T05:31:22.527Z,28.97
2023-04-16T05:32:22.551Z,32.21
2023-04-16T05:33:22.556Z,32.13
2023-04-16T05:34:22.631Z,32.56
2023-04-16T05:35:22.697Z,33.94
2023-04-16T05:36:22.734Z,31.98
2023-04-16T05:37:22.813Z,34.35
2023-04-16T05:38:22.810Z,31.36
2023-04-16T05:39:22.842Z,33.07
2023-04-16T05:40:22.895Z,30.69
2023-04-16T05:41:22.928Z,30.90
2023-04-16T05:42:22.960Z,34.20
2023-04-16T05:43:23.007Z,31.17
2023-04-16T05:44:23.053Z,35.72
2023-04-16T05:45:23.090Z,31.90
2023-04-16T05:46:23.132Z,30.02
2023-04-16T05:47:23.232Z,31.58
2023-04-16T05:48:23.467Z,32.38
2023-04-16T05:49:23.225Z,32.44
2023-04-16T05:50:23.953Z,32.90
2023-04-16T05:51:23.308Z,32.10
2023-04-16T05:52:23.342Z,31.56
2023-04-16T05:53:23.382Z,34.92
2023-04-16T05:54:23.430Z,32.23
2023-04-16T05:55:23.480Z,28.87
2023-04-16T05:56:23.511Z,30.50
2023-04-16T05:57:23.568Z,28.60
2023-04-16T05:58:23.615Z,30.91
2023-04-16T05:59:23.667Z,31.02
2023-04-16T06:00:23.722Z,31.08
2023-04-16T06:01:24.454Z,36.21
2023-04-16T06:02:24.604Z,34.76
2023-04-16T06:03:24.143Z,35.75
2023-04-16T06:04:24.039Z,31.83
2023-04-16T06:05:24.114Z,33.92
2023-04-16T06:06:24.119Z,35.01
2023-04-16T06:07:24.188Z,34.19
2023-04-16T06:08:24.251Z,32.64
2023-04-16T06:09:24.313Z,34.48
2023-04-16T06:10:24.386Z,32.51
2023-04-16T06:11:24.432Z,31.27
2023-04-16T06:12:24.505Z,35.05
2023-04-16T06:13:24.726Z,34.12
2023-04-16T06:14:24.658Z,28.60
2023-04-16T06:15:24.716Z,32.59
2023-04-16T06:16:24.780Z,34.86
2023-04-16T06:17:24.847Z,33.43
2023-04-16T06:18:24.879Z,34.85
2023-04-16T06:19:24.963Z,34.47
2023-04-16T06:20:25.002Z,31.04
2023-04-16T06:21:25.043Z,33.73
2023-04-16T06:22:25.059Z,33.29
2023-04-16T06:23:25.110Z,32.63
2023-04-16T06:24:25.177Z,31.92
2023-04-16T06:25:25.261Z,30.72
2023-04-16T06:26:25.413Z,32.93
2023-04-16T06:27:25.376Z,33.87
2023-04-16T06:28:25.446Z,32.76
2023-04-16T06:29:33.654Z,34.94
2023-04-16T06:30:25.515Z,35.21
2023-04-16T06:31:25.495Z,35.96
2023-04-16T06:32:25.507Z,37.43
2023-04-16T06:33:25.477Z,35.48
2023-04-16T06:34:25.479Z,38.18
2023-04-16T06:35:25.503Z,35.27
2023-04-16T06:36:25.467Z,33.49
2023-04-16T06:37:25.463Z,34.17
2023-04-16T06:38:25.474Z,32.68
2023-04-16T06:39:25.454Z,33.95
2023-04-16T06:40:25.518Z,33.73
2023-04-16T06:41:25.447Z,34.18
2023-04-16T06:42:25.436Z,32.56
2023-04-16T06:43:25.442Z,32.42
2023-04-16T06:44:25.442Z,33.34
2023-04-16T06:45:25.435Z,34.05
2023-04-16T06:46:25.460Z,33.82
2023-04-16T06:47:25.474Z,33.81
2023-04-16T06:48:25.428Z,34.17
2023-04-16T06:49:25.416Z,33.07
2023-04-16T06:50:25.415Z,33.60
2023-04-16T06:51:25.429Z,33.69
2023-04-16T06:52:25.397Z,34.71
2023-04-16T06:53:25.415Z,35.94
2023-04-16T06:54:25.477Z,37.05
2023-04-16T06:55:25.554Z,34.81
2023-04-16T06:56:25.606Z,35.81
2023-04-16T06:57:40.478Z,35.44
2023-04-16T06:58:25.666Z,36.33
2023-04-16T06:59:25.667Z,37.97
2023-04-16T07:00:25.669Z,39.64
2023-04-16T07:01:25.780Z,40.86
2023-04-16T07:02:25.815Z,42.69
2023-04-16T07:03:25.751Z,39.86
2023-04-16T07:04:25.676Z,43.56
2023-04-16T07:05:25.647Z,39.06
2023-04-16T07:06:25.628Z,39.58
2023-04-16T07:07:25.650Z,36.74
2023-04-16T07:08:25.628Z,38.15
2023-04-16T07:09:25.620Z,37.89
2023-04-16T07:10:25.721Z,39.03
2023-04-16T07:11:25.623Z,33.53
2023-04-16T07:12:26.483Z,42.09
2023-04-16T07:13:25.615Z,36.74
2023-04-16T07:14:26.484Z,36.24
2023-04-16T07:15:25.618Z,36.43
2023-04-16T07:16:26.543Z,38.73
2023-04-16T07:17:25.676Z,37.98
2023-04-16T07:18:26.083Z,36.40
2023-04-16T07:19:26.121Z,36.33
2023-04-16T07:20:26.120Z,39.12
2023-04-16T07:21:26.128Z,36.24
2023-04-16T07:22:26.119Z,35.54
2023-04-16T07:23:26.154Z,38.79
2023-04-16T07:24:33.031Z,39.58
2023-04-16T07:25:26.114Z,40.02
2023-04-16T07:26:26.132Z,40.52
2023-04-16T07:27:26.119Z,40.54
2023-04-16T07:28:26.131Z,41.29
2023-04-16T07:29:26.122Z,41.19
2023-04-16T07:30:33.007Z,37.61
2023-04-16T07:31:26.126Z,38.22
2023-04-16T07:32:26.282Z,39.08
2023-04-16T07:33:26.124Z,39.47
2023-04-16T07:34:26.125Z,40.51
2023-04-16T07:35:26.128Z,35.91
2023-04-16T07:36:26.124Z,37.96
2023-04-16T07:37:26.120Z,37.11
2023-04-16T07:38:26.120Z,37.44
2023-04-16T07:39:26.159Z,37.92
2023-04-16T07:40:26.128Z,36.46
2023-04-16T07:41:26.126Z,34.83
2023-04-16T07:42:26.150Z,38.79
2023-04-16T07:43:26.197Z,38.32
2023-04-16T07:44:26.245Z,36.74
2023-04-16T07:45:27.025Z,36.90
2023-04-16T07:46:30.432Z,37.31
2023-04-16T07:47:26.399Z,37.73
2023-04-16T07:48:26.348Z,38.38
2023-04-16T07:49:26.350Z,39.51
2023-04-16T07:50:26.511Z,40.04
2023-04-16T07:51:26.343Z,39.96
2023-04-16T07:52:26.337Z,38.82
2023-04-16T07:53:26.330Z,38.51
2023-04-16T07:54:29.254Z,38.45
2023-04-16T07:55:26.357Z,38.70
2023-04-16T07:56:26.326Z,39.12
2023-04-16T07:57:26.322Z,38.78
2023-04-16T07:58:26.317Z,40.40
2023-04-16T07:59:26.701Z,35.92
2023-04-16T08:00:26.395Z,40.52
2023-04-16T08:01:26.313Z,36.94
2023-04-16T08:02:26.479Z,39.92
2023-04-16T08:03:26.773Z,37.07
2023-04-16T08:04:26.738Z,36.71
2023-04-16T08:05:26.364Z,36.64
2023-04-16T08:06:26.266Z,37.00
2023-04-16T08:07:34.482Z,36.81
2023-04-16T08:08:26.252Z,37.53
2023-04-16T08:09:26.252Z,38.44
2023-04-16T08:10:26.240Z,38.85
2023-04-16T08:11:33.041Z,38.17
2023-04-16T08:12:26.236Z,37.48
2023-04-16T08:13:26.228Z,38.37
2023-04-16T08:14:26.245Z,39.27
2023-04-16T08:15:26.228Z,40.63
2023-04-16T08:16:33.012Z,37.99
2023-04-16T08:17:26.248Z,37.48
2023-04-16T08:18:26.212Z,38.10
2023-04-16T08:19:26.204Z,38.55
2023-04-16T08:20:26.526Z,40.57
2023-04-16T08:21:26.191Z,39.03
2023-04-16T08:22:26.186Z,41.27
2023-04-16T08:23:26.181Z,38.83
2023-04-16T08:24:26.174Z,39.67
2023-04-16T08:25:26.166Z,38.77
2023-04-16T08:26:26.162Z,40.68
2023-04-16T08:27:26.184Z,39.34
2023-04-16T08:28:26.169Z,38.99
2023-04-16T08:29:26.207Z,38.92
2023-04-16T08:30:26.247Z,39.33
2023-04-16T08:31:26.337Z,36.57
2023-04-16T08:32:26.388Z,34.69
2023-04-16T08:33:26.413Z,38.07
2023-04-16T08:34:26.420Z,35.91
2023-04-16T08:35:26.477Z,37.04
2023-04-16T08:36:26.500Z,35.81
2023-04-16T08:37:26.544Z,36.26
2023-04-16T08:38:26.598Z,37.61
2023-04-16T08:39:27.014Z,38.17
2023-04-16T08:40:27.015Z,36.06
2023-04-16T08:41:27.015Z,38.78
2023-04-16T08:42:27.014Z,38.46
2023-04-16T08:43:27.048Z,35.89
2023-04-16T08:44:27.008Z,36.22
2023-04-16T08:45:27.010Z,38.28
2023-04-16T08:46:26.167Z,36.77
2023-04-16T08:47:27.055Z,37.42
2023-04-16T08:48:27.035Z,36.87
2023-04-16T08:49:27.080Z,37.41
2023-04-16T08:50:27.146Z,33.45
2023-04-16T08:51:27.188Z,36.03
2023-04-16T08:52:27.241Z,39.94
2023-04-16T08:53:27.294Z,36.14
2023-04-16T08:54:27.352Z,37.28
2023-04-16T08:55:27.425Z,36.17
2023-04-16T08:56:27.445Z,38.46
2023-04-16T08:57:27.490Z,37.41
2023-04-16T08:58:27.543Z,39.87
2023-04-16T08:59:27.621Z,40.13
2023-04-16T09:00:27.654Z,37.82
2023-04-16T09:01:27.724Z,36.93
2023-04-16T09:02:28.739Z,38.00
2023-04-16T09:03:27.858Z,36.43
2023-04-16T09:04:27.902Z,37.86
2023-04-16T09:05:27.907Z,32.82
2023-04-16T09:06:27.981Z,38.26
2023-04-16T09:07:27.981Z,38.49
2023-04-16T09:08:28.014Z,39.88
2023-04-16T09:09:28.052Z,39.89
2023-04-16T09:10:28.091Z,37.29
2023-04-16T09:11:28.113Z,38.31
2023-04-16T09:12:28.141Z,38.31
2023-04-16T09:13:28.160Z,38.69
2023-04-16T09:14:28.168Z,38.49
2023-04-16T09:15:28.209Z,40.52
2023-04-16T09:16:28.211Z,38.80
2023-04-16T09:17:28.246Z,39.84
2023-04-16T09:18:28.294Z,41.02
2023-04-16T09:19:28.386Z,38.90
2023-04-16T09:20:28.389Z,38.80
2023-04-16T09:21:28.456Z,39.94
2023-04-16T09:22:28.476Z,39.67
2023-04-16T09:23:28.516Z,39.11
2023-04-16T09:24:28.528Z,40.87
2023-04-16T09:25:28.572Z,38.81
2023-04-16T09:26:28.602Z,37.71
2023-04-16T09:27:28.611Z,42.31
2023-04-16T09:28:28.646Z,42.52
2023-04-16T09:29:28.681Z,39.80
2023-04-16T09:30:28.742Z,38.90
2023-04-16T09:31:28.865Z,39.27
2023-04-16T09:32:28.875Z,41.04
2023-04-16T09:33:28.887Z,44.02
2023-04-16T09:34:28.942Z,40.46
2023-04-16T09:35:31.538Z,39.36
2023-04-16T09:36:28.997Z,46.30
2023-04-16T09:37:28.991Z,44.33
2023-04-16T09:38:28.980Z,44.64
2023-04-16T09:39:31.534Z,39.18
2023-04-16T09:40:28.958Z,39.53
2023-04-16T09:41:28.960Z,40.51
2023-04-16T09:42:28.945Z,40.90
2023-04-16T09:43:28.948Z,41.39
2023-04-16T09:44:28.936Z,43.20
2023-04-16T09:45:28.978Z,43.64
2023-04-16T09:46:28.999Z,44.58
2023-04-16T09:47:28.953Z,44.34
2023-04-16T09:48:28.913Z,45.48
2023-04-16T09:49:28.903Z,45.59
2023-04-16T09:50:28.906Z,42.38
2023-04-16T09:51:28.918Z,44.42
2023-04-16T09:52:28.883Z,44.50
2023-04-16T09:53:29.547Z,43.39
2023-04-16T09:54:28.878Z,42.98
2023-04-16T09:55:28.869Z,45.83
2023-04-16T09:56:28.984Z,44.92
2023-04-16T09:57:28.875Z,43.76
2023-04-16T09:58:28.862Z,43.81
2023-04-16T09:59:28.856Z,42.63
2023-04-16T10:00:28.855Z,44.90
2023-04-16T10:01:28.958Z,43.62
2023-04-16T10:02:29.613Z,43.49
2023-04-16T10:03:29.036Z,45.11
2023-04-16T10:04:28.900Z,43.11
2023-04-16T10:05:28.943Z,43.10
2023-04-16T10:06:29.073Z,44.26
2023-04-16T10:07:29.560Z,42.80
2023-04-16T10:08:29.142Z,43.48
2023-04-16T10:09:29.208Z,44.49
2023-04-16T10:10:29.288Z,45.09
2023-04-16T10:11:29.338Z,43.74
2023-04-16T10:12:29.406Z,45.13
2023-04-16T10:13:29.476Z,48.65
2023-04-16T10:14:29.543Z,43.76
2023-04-16T10:15:29.614Z,45.35
2023-04-16T10:16:29.736Z,44.22
2023-04-16T10:17:29.822Z,33.83
2023-04-16T10:18:29.807Z,43.79
2023-04-16T10:19:29.899Z,42.51
2023-04-16T10:20:29.936Z,44.98
2023-04-16T10:21:30.008Z,44.41
2023-04-16T10:22:30.066Z,44.97
2023-04-16T10:23:31.069Z,46.72
2023-04-16T10:24:30.179Z,44.82
2023-04-16T10:25:30.247Z,46.79
2023-04-16T10:26:30.313Z,41.58
2023-04-16T10:27:30.375Z,44.93
2023-04-16T10:28:30.441Z,45.89
2023-04-16T10:29:30.499Z,45.24
2023-04-16T10:30:30.563Z,47.84
2023-04-16T10:31:30.665Z,46.54
2023-04-16T10:32:30.747Z,48.93
2023-04-16T10:33:30.753Z,44.95
2023-04-16T10:34:30.826Z,38.51
2023-04-16T10:35:30.931Z,47.20
2023-04-16T10:36:30.950Z,42.43
2023-04-16T10:37:31.030Z,47.04
2023-04-16T10:38:31.568Z,45.64
2023-04-16T10:39:32.127Z,45.73
2023-04-16T10:40:31.213Z,47.50
2023-04-16T10:41:31.275Z,47.74
2023-04-16T10:42:31.344Z,46.93
2023-04-16T10:43:31.412Z,47.60
2023-04-16T10:44:31.456Z,44.18
2023-04-16T10:45:31.521Z,47.97
2023-04-16T10:46:31.674Z,42.92
2023-04-16T10:47:31.684Z,44.48
2023-04-16T10:48:42.368Z,47.63
2023-04-16T10:49:31.697Z,47.92
2023-04-16T10:50:31.708Z,49.03
2023-04-16T10:51:32.183Z,49.90
2023-04-16T10:52:31.675Z,50.22
2023-04-16T10:53:31.654Z,50.98
2023-04-16T10:54:32.573Z,50.72
2023-04-16T10:55:32.570Z,49.48
2023-04-16T10:56:31.622Z,51.84
2023-04-16T10:57:31.601Z,48.83
2023-04-16T10:58:31.675Z,48.52
2023-04-16T10:59:32.563Z,49.91
2023-04-16T11:00:32.135Z,43.66
2023-04-16T11:01:32.143Z,46.17
2023-04-16T11:02:32.374Z,50.18
2023-04-16T11:03:32.298Z,48.81
2023-04-16T11:04:32.238Z,50.18
2023-04-16T11:05:32.125Z,48.27
2023-04-16T11:06:32.291Z,48.79
2023-04-16T11:07:32.342Z,48.10
2023-04-16T11:08:32.284Z,47.14
2023-04-16T11:09:32.343Z,49.33
2023-04-16T11:10:32.409Z,51.53
2023-04-16T11:11:32.473Z,46.52
2023-04-16T11:12:32.541Z,46.66
2023-04-16T11:13:32.600Z,51.49
2023-04-16T11:14:33.021Z,50.82
2023-04-16T11:15:33.060Z,48.12
2023-04-16T11:16:33.212Z,49.13
2023-04-16T11:17:33.134Z,49.54
2023-04-16T11:18:33.059Z,47.35
2023-04-16T11:19:33.052Z,44.50
2023-04-16T11:20:33.052Z,48.26
2023-04-16T11:21:33.102Z,46.15
2023-04-16T11:22:33.146Z,48.73
2023-04-16T11:23:33.237Z,49.52
2023-04-16T11:24:33.277Z,49.28
2023-04-16T11:25:33.346Z,47.95
2023-04-16T11:26:33.405Z,49.07
2023-04-16T11:27:33.449Z,48.76
2023-04-16T11:28:33.508Z,49.37
2023-04-16T11:29:33.548Z,46.68
2023-04-16T11:30:33.604Z,47.88
2023-04-16T11:31:33.734Z,45.69
2023-04-16T11:32:33.848Z,51.49
2023-04-16T11:33:33.802Z,49.10
2023-04-16T11:34:33.862Z,42.63
2023-04-16T11:35:33.921Z,48.30
2023-04-16T11:36:33.959Z,47.70
2023-04-16T11:37:34.058Z,45.48
2023-04-16T11:38:34.078Z,47.63
2023-04-16T11:39:34.164Z,47.34
2023-04-16T11:40:34.205Z,49.25
2023-04-16T11:41:34.262Z,49.75
2023-04-16T11:42:34.376Z,46.83
2023-04-16T11:43:34.371Z,49.68
2023-04-16T11:44:34.426Z,50.32
2023-04-16T11:45:34.487Z,47.25
2023-04-16T11:46:34.606Z,48.71
2023-04-16T11:47:34.797Z,41.92
2023-04-16T11:48:34.679Z,47.91
2023-04-16T11:49:34.732Z,46.31
2023-04-16T11:50:34.796Z,49.63
2023-04-16T11:51:34.854Z,50.80
2023-04-16T11:52:34.925Z,45.32
2023-04-16T11:53:34.984Z,51.41
2023-04-16T11:54:35.041Z,43.99
2023-04-16T11:55:35.134Z,48.04
2023-04-16T11:56:35.167Z,48.20
2023-04-16T11:57:35.215Z,46.91
2023-04-16T11:58:35.273Z,45.64
2023-04-16T11:59:35.341Z,44.76
2023-04-16T12:00:35.407Z,47.12
2023-04-16T12:01:35.459Z,49.15
2023-04-16T12:02:35.729Z,50.63
2023-04-16T12:03:35.874Z,45.89
2023-04-16T12:04:35.759Z,47.96
2023-04-16T12:05:35.714Z,50.40
2023-04-16T12:06:35.764Z,48.45
2023-04-16T12:07:35.809Z,48.95
2023-04-16T12:08:35.863Z,47.70
2023-04-16T12:09:37.885Z,45.73
2023-04-16T12:10:35.906Z,45.99
2023-04-16T12:11:35.925Z,46.30
2023-04-16T12:12:35.929Z,46.90
2023-04-16T12:13:35.897Z,48.80
2023-04-16T12:14:35.890Z,49.79
2023-04-16T12:15:35.932Z,46.82
2023-04-16T12:16:36.076Z,49.39
2023-04-16T12:17:36.102Z,49.58
2023-04-16T12:18:36.132Z,47.70
2023-04-16T12:19:36.180Z,48.65
2023-04-16T12:20:36.216Z,45.13
2023-04-16T12:21:36.277Z,45.33
2023-04-16T12:22:37.305Z,47.13
2023-04-16T12:23:36.379Z,48.54
2023-04-16T12:24:36.429Z,50.94
2023-04-16T12:25:36.488Z,50.16
2023-04-16T12:26:36.549Z,47.12
2023-04-16T12:27:36.631Z,48.98
2023-04-16T12:28:36.676Z,48.09
2023-04-16T12:29:36.717Z,49.63
2023-04-16T12:30:36.815Z,47.02
2023-04-16T12:31:36.842Z,45.72
2023-04-16T12:32:36.941Z,47.41
2023-04-16T12:33:36.955Z,47.64
2023-04-16T12:34:49.131Z,49.24
2023-04-16T12:35:37.007Z,49.55
2023-04-16T12:36:37.002Z,50.65
2023-04-16T12:37:36.980Z,50.22
2023-04-16T12:38:36.988Z,49.87
2023-04-16T12:39:36.978Z,47.19
2023-04-16T12:40:36.967Z,50.69
2023-04-16T12:41:36.956Z,45.10
2023-04-16T12:42:36.973Z,50.58
2023-04-16T12:43:36.976Z,52.67
2023-04-16T12:44:36.973Z,50.53
2023-04-16T12:45:36.935Z,49.46
2023-04-16T12:46:36.958Z,50.03
2023-04-16T12:47:36.961Z,44.45
2023-04-16T12:48:36.930Z,54.33
2023-04-16T12:49:36.917Z,47.50
2023-04-16T12:50:36.887Z,49.92
2023-04-16T12:51:36.890Z,48.83
2023-04-16T12:52:36.879Z,49.08